• Join FlightAware (Why Join?)
  • Login
  • US Flag 
10:47AM EDT


 

Airport Tracker/Info


-or-


 

Live Flight TrackerFlight Track Log ✈ N441KP ✈ 02-May-2012 ✈ KSRQ - KMGY

Flight Track Log - Related Links

Times and Time Zones

All times are in EDT time to prevent confusion due to time zone crossing. See the N441KP flight status page for this flight to view local times or setup timezone preferences in your user account.

Time Position Orientation Groundspeed Altitude Reporting Facility
EDT Latitude Longitude Course Direction KTS MPH feet Rate Location/Type
08:53AM 27.3667 -82.5500 180° South 154 177 1,500  Level Tampa TRACON
08:54AM 27.3333 -82.5500 279° West 136 157 4,100 2,160 Climbing Tampa TRACON
08:56AM 27.3439 -82.6286 329° Northwest 65 75 7,700 1,860 Climbing Miami Center
08:57AM 27.3886 -82.6589 327° Northwest 146 168 9,400 1,680 Climbing Miami Center
08:58AM 27.4272 -82.6867 332° Northwest 162 186 11,100 1,920 Climbing Miami Center
08:59AM 27.4742 -82.7147 350° North 174 200 13,300 1,980 Climbing Miami Center
09:00AM 27.5531 -82.7311 354° North 191 220 16,200 1,740 Climbing Jacksonville Center
09:01AM 27.6094 -82.7381 348° North 191 220 17,800 1,500 Climbing Jacksonville Center
09:02AM 27.6658 -82.7519 358° North 201 231 19,200 1,380 Climbing Jacksonville Center
09:03AM 27.7242 -82.7542 352° North 201 231 20,600 1,200 Climbing Jacksonville Center
09:04AM 27.7847 -82.7636 349° North 208 239 21,700 1,020 Climbing Jacksonville Center
09:05AM 27.8472 -82.7775 356° North 214 246 22,700 1,080 Climbing Jacksonville Center
09:06AM 27.9100 -82.7822 357° North 220 253 23,900 660 Climbing Jacksonville Center
09:07AM 27.9789 -82.7869 345° North 227 261 24,100 60 Climbing Jacksonville Center
09:08AM 28.0478 -82.8078 352° North 245 282 24,100 -60 Level Jacksonville Center
09:09AM 28.1250 -82.8197 359° North 262 302 24,000 -60 Descending Jacksonville Center
09:10AM 28.2106 -82.8219 351° North 274 315 24,000  Level Jacksonville Center
09:11AM 28.2878 -82.8361 345° North 274 315 24,100  Climbing Jacksonville Center
09:12AM 28.3628 -82.8594 354° North 274 315 24,000 -60 Descending Jacksonville Center
09:13AM 28.4400 -82.8689 352° North 279 321 24,000  Level Jacksonville Center
09:14AM 28.5192 -82.8808 354° North 279 321 24,000  Level Jacksonville Center
09:15AM 28.5986 -82.8903 351° North 279 321 24,000  Level Jacksonville Center
09:16AM 28.6736 -82.9044 356° North 279 321 24,000  Level Jacksonville Center
09:17AM 28.7531 -82.9114 347° North 279 321 24,000  Level Jacksonville Center
09:18AM 28.8281 -82.9306 357° North 279 321 24,000  Level Jacksonville Center
09:19AM 28.9053 -82.9353 355° North 279 321 24,000  Level Jacksonville Center
09:20AM 28.9722 -82.9425 348° North 273 314 24,100  Climbing Jacksonville Center
09:21AM 29.0494 -82.9614 351° North 273 314 24,000 -60 Descending Jacksonville Center
09:22AM 29.1267 -82.9758 355° North 279 321 24,000  Level Jacksonville Center
09:23AM 29.1997 -82.9831 347° North 274 315 24,000  Level Jacksonville Center
09:24AM 29.2811 -83.0044 354° North 279 321 24,000  Level Jacksonville Center
09:25AM 29.3583 -83.0142 358° North 279 321 24,100  Climbing Jacksonville Center
09:26AM 29.4356 -83.0167 352° North 273 314 24,000 -60 Descending Jacksonville Center
09:27AM 29.5106 -83.0286 348° North 273 314 24,000  Level Jacksonville Center
09:28AM 29.5900 -83.0478 340° North 279 321 24,000  Level Jacksonville Center
09:29AM 29.6631 -83.0789 339° North 279 321 24,100  Climbing Jacksonville Center
09:30AM 29.7339 -83.1103 337° Northwest 274 315 24,100  Level Jacksonville Center
09:31AM 29.8028 -83.1439 339° North 274 315 24,100 -60 Level Jacksonville Center
09:32AM 29.8778 -83.1775 336° Northwest 274 315 24,000 -60 Descending Jacksonville Center
09:33AM 29.9489 -83.2139 338° Northwest 274 315 24,000  Level Jacksonville Center
09:34AM 30.0197 -83.2475 337° Northwest 269 310 24,000  Level Jacksonville Center
09:35AM 30.0883 -83.2814 343° North 269 310 24,000  Level Jacksonville Center
09:36AM 30.1636 -83.3083 335° Northwest 275 316 24,000  Level Jacksonville Center
09:37AM 30.2344 -83.3469 339° North 275 316 24,000  Level Jacksonville Center
09:38AM 30.3094 -83.3811 344° North 275 316 24,000  Level Jacksonville Center
09:39AM 30.3844 -83.4056 335° Northwest 281 323 24,000  Level Jacksonville Center
09:40AM 30.4553 -83.4444 337° Northwest 281 323 24,000  Level Jacksonville Center
09:41AM 30.5242 -83.4786 337° Northwest 281 323 24,000  Level Jacksonville Center
09:42AM 30.5969 -83.5153 338° Northwest 276 318 24,000  Level Jacksonville Center
09:43AM 30.6700 -83.5494 334° Northwest 276 318 24,000  Level Jacksonville Center
09:44AM 30.7428 -83.5911 339° North 276 318 24,000  Level Jacksonville Center
09:45AM 30.8156 -83.6231 342° North 276 318 24,000  Level Jacksonville Center
09:46AM 30.8928 -83.6528 336° Northwest 281 323 24,000  Level Jacksonville Center
09:47AM 30.9636 -83.6897 338° Northwest 281 323 24,000  Level Jacksonville Center
09:48AM 31.0364 -83.7242 338° Northwest 281 323 24,000  Level Jacksonville Center
09:49AM 31.1092 -83.7589 337° Northwest 281 323 24,000  Level Jacksonville Center
09:50AM 31.1819 -83.7958 337° Northwest 276 318 24,000  Level Jacksonville Center
09:53AM 31.3750 -83.8906 340° North 276 318 24,000  Level Atlanta Center
09:54AM 31.4481 -83.9219 334° Northwest 276 318 24,000  Level Atlanta Center
09:55AM 31.5211 -83.9633 346° North 276 318 24,000  Level Atlanta Center
09:56AM 31.5983 -83.9853 350° North 276 318 24,000  Level Atlanta Center
09:57AM 31.6778 -84.0022 349° North 276 318 24,000  Level Atlanta Center
09:58AM 31.7592 -84.0217 352° North 281 323 24,000  Level Atlanta Center
09:59AM 31.8300 -84.0339 347° North 281 323 24,000  Level Atlanta Center
10:00AM 31.9094 -84.0558 349° North 286 329 24,000  Level Atlanta Center
10:01AM 31.9867 -84.0731 348° North 286 329 24,000  Level Atlanta Center
10:02AM 32.0681 -84.0928 353° North 286 329 24,000  Level Atlanta Center
10:03AM 32.1472 -84.1050 348° North 286 329 24,000  Level Atlanta Center
10:04AM 32.2267 -84.1247 349° North 286 329 24,100  Climbing Atlanta Center
10:05AM 32.3039 -84.1419 349° North 286 329 24,000 -60 Descending Atlanta Center
10:06AM 32.3831 -84.1594 351° North 286 329 24,000  Level Atlanta Center
10:07AM 32.4625 -84.1742 351° North 286 329 24,000  Level Atlanta Center
10:08AM 32.5397 -84.1892 348° North 286 329 24,000 -60 Level Atlanta Center
10:09AM 32.6189 -84.2089 348° North 286 329 23,900  Descending Atlanta Center
10:10AM 32.6983 -84.2289 351° North 281 323 24,000  Climbing Atlanta Center
10:11AM 32.7775 -84.2439 348° North 281 323 24,000  Level Atlanta Center
10:12AM 32.8653 -84.2664 349° North 286 329 24,000  Level Atlanta Center
10:13AM 32.9444 -84.2839 350° North 286 329 24,000  Level Atlanta Center
10:14AM 33.0133 -84.2989 350° North 281 323 24,000  Level Atlanta Center
10:15AM 33.0925 -84.3164 North 281 323 24,000  Level Atlanta Center
10:16AM 33.1739 -84.3117 North 281 323 24,000  Level Atlanta Center
10:17AM 33.2533 -84.2997 North 281 323 24,000  Level Atlanta Center
10:18AM 33.3369 -84.2900 North 293 337 24,000  Level Atlanta Center
10:19AM 33.4161 -84.2778 11° North 293 337 24,000  Level Atlanta Center
10:20AM 33.4978 -84.2581 North 293 337 24,000  Level Atlanta Center
10:21AM 33.5875 -84.2458 North 293 337 24,000  Level Atlanta Center
10:22AM 33.6689 -84.2386 North 294 338 24,000  Level Atlanta Center
10:23AM 33.7503 -84.2286 North 287 330 24,000  Level Atlanta Center
10:24AM 33.8358 -84.2164 12° North 287 330 24,000  Level Atlanta Center
10:25AM 33.9131 -84.1964 North 294 338 24,000  Level Atlanta Center
10:26AM 33.9967 -84.1867 North 294 338 24,000  Level Atlanta Center
10:27AM 34.0800 -84.1767 North 294 338 24,000  Level Atlanta Center
10:28AM 34.1617 -84.1619 North 294 338 24,000  Level Atlanta Center
10:29AM 34.2450 -84.1519 North 294 338 24,000  Level Atlanta Center
10:30AM 34.3264 -84.1394 North 294 338 24,100  Climbing Atlanta Center
10:31AM 34.4078 -84.1244 North 294 338 24,000 -60 Descending Atlanta Center
10:32AM 34.4872 -84.1119 North 294 338 24,000  Level Atlanta Center
10:33AM 34.5706 -84.1044 10° North 294 338 24,000  Level Atlanta Center
10:34AM 34.6519 -84.0867 North 294 338 24,000  Level Atlanta Center
10:35AM 34.7231 -84.0817 North 288 331 24,000  Level Atlanta Center
10:36AM 34.8044 -84.0717 10° North 288 331 24,000  Level Atlanta Center
10:37AM 34.8858 -84.0539 North 293 337 24,000  Level Atlanta Center
10:38AM 34.9692 -84.0464 North 293 337 24,000  Level Atlanta Center
10:39AM 35.0506 -84.0361 North 293 337 24,000  Level Atlanta Center
10:40AM 35.1319 -84.0236 North 293 337 24,000  Level Atlanta Center
10:41AM 35.2133 -84.0133 North 293 337 24,000  Level Atlanta Center
10:42AM 35.2928 -83.9981 North 293 337 24,000  Level Atlanta Center
10:43AM 35.3739 -83.9853 North 293 337 24,000  Level Atlanta Center
10:44AM 35.4553 -83.9750 10° North 293 337 24,000  Level Atlanta Center
10:45AM 35.5367 -83.9569 North 293 337 24,000  Level Atlanta Center
10:46AM 35.6181 -83.9494 12° North 293 337 24,000  Level Atlanta Center
10:47AM 35.6972 -83.9289 North 293 337 24,000  Level Atlanta Center
10:48AM 35.7786 -83.9133 North 293 337 24,000  Level Atlanta Center
10:49AM 35.8600 -83.9056 North 293 337 24,000  Level Atlanta Center
10:50AM 35.9392 -83.8978 North 293 337 24,000  Level Atlanta Center
10:51AM 36.0206 -83.8925 North 293 337 24,000 -60 Level Atlanta Center
10:52AM 36.1019 -83.8897 North 293 337 23,900  Descending Atlanta Center
10:53AM 36.1811 -83.8819 North 288 331 24,000  Climbing Atlanta Center
10:55AM 36.3611 -83.8717 North 290 334 24,000  Level Indianapolis Center
10:56AM 36.4406 -83.8667 North 290 334 24,000  Level Indianapolis Center
10:57AM 36.5031 -83.8644 North 290 334 24,000  Level Indianapolis Center
10:58AM 36.5906 -83.8544 North 290 334 24,000  Level Indianapolis Center
10:59AM 36.6719 -83.8522 North 290 334 24,000  Level Indianapolis Center
11:00AM 36.7492 -83.8472 North 290 334 24,000 -300 Level Indianapolis Center
11:01AM 36.8328 -83.8400 North 290 334 23,500 -600 Descending Indianapolis Center
11:02AM 36.9183 -83.8350 North 290 334 22,900 -480 Descending Indianapolis Center
11:03AM 37.0039 -83.8300 North 301 346 22,600 -420 Descending Indianapolis Center
11:04AM 37.0894 -83.8253 North 307 353 22,100 -300 Descending Indianapolis Center
11:05AM 37.1750 -83.8203 North 307 353 22,000 -60 Descending Indianapolis Center
11:06AM 37.2625 -83.8128 North 301 346 22,000 -60 Level Indianapolis Center
11:07AM 37.3439 -83.8078 North 291 335 21,900  Descending Indianapolis Center
11:08AM 37.4231 -83.8003 North 291 335 22,000  Climbing Indianapolis Center
11:09AM 37.5025 -83.7953 North 291 335 22,000  Level Indianapolis Center
11:10AM 37.5839 -83.7903 North 291 335 22,000  Level Indianapolis Center
11:11AM 37.6653 -83.7853 North 286 329 22,000  Level Indianapolis Center
11:12AM 37.7444 -83.7828 North 286 329 22,000  Level Indianapolis Center
11:13AM 37.8236 -83.7778 North 292 336 22,000  Level Indianapolis Center
11:14AM 37.9050 -83.7675 357° North 292 336 22,000  Level Indianapolis Center
11:15AM 37.9842 -83.7731 360° North 286 329 22,000  Level Indianapolis Center
11:16AM 38.0636 -83.7733 North 286 329 22,000  Level Indianapolis Center
11:17AM 38.1428 -83.7578 North 286 329 22,000  Level Indianapolis Center
11:18AM 38.2242 -83.7500 North 291 335 22,000  Level Indianapolis Center
11:19AM 38.3056 -83.7450 North 291 335 22,000  Level Indianapolis Center
11:20AM 38.3847 -83.7397 North 291 335 22,000  Level Indianapolis Center
11:21AM 38.4683 -83.7347 North 291 335 22,000  Level Indianapolis Center
11:22AM 38.5475 -83.7269 360° North 291 335 22,000  Level Indianapolis Center
11:23AM 38.6267 -83.7272 North 291 335 22,000 -300 Level Indianapolis Center
11:24AM 38.7019 -83.7247 359° North 288 331 21,500 -1,020 Descending Indianapolis Center
11:25AM 38.7853 -83.7275 337° Northwest 294 338 20,000 -1,500 Descending Indianapolis Center
11:26AM 38.8686 -83.7731 331° Northwest 308 354 18,500 -1,500 Descending Indianapolis Center
11:27AM 38.9478 -83.8294 337° Northwest 321 369 17,100 -1,440 Descending Indianapolis Center
11:27AM 39.0081 -83.8617 335° Northwest 317 365 16,200 -1,500 Descending Indianapolis Center
11:29AM 39.1103 -83.9236 330° Northwest 309 356 14,200 -1,620 Descending Indianapolis Center
11:30AM 39.1789 -83.9750 334° Northwest 297 342 12,500 -2,100 Descending Indianapolis Center
11:31AM 39.2517 -84.0208 340° North 294 338 10,100 -2,460 Descending Indianapolis Center
11:32AM 39.3161 -84.0508 333° Northwest 275 316 7,800 -2,520 Descending Indianapolis Center
11:33AM 39.3806 -84.0942 336° Northwest 262 302 5,400 6,660 Descending Indianapolis Center
11:34AM 39.4511 -84.1353 334° Northwest 267 307 22,000 7,860 Climbing Indianapolis Center
11:35AM 39.5239 -84.1814 335° Northwest 267 307 22,000  Level Indianapolis Center
11:36AM 39.5967 -84.2253 336° Northwest 267 307 22,000  Level Indianapolis Center
11:37AM 39.6528 -84.2581 336° Northwest 267 307 22,000  Level Indianapolis Center